createdAt,value
2023-04-26T00:00:18.021Z,2.13
2023-04-26T00:03:05.053Z,2.33
2023-04-26T00:05:52.020Z,2.20
2023-04-26T00:08:39.083Z,2.40
2023-04-26T00:11:26.108Z,2.28
2023-04-26T00:14:13.237Z,2.30
2023-04-26T00:17:00.181Z,2.00
2023-04-26T00:19:47.135Z,2.20
2023-04-26T00:22:33.955Z,2.40
2023-04-26T00:25:20.945Z,2.53
2023-04-26T00:28:07.797Z,2.42
2023-04-26T00:30:57.701Z,2.95
2023-04-26T00:33:44.535Z,3.40
2023-04-26T00:36:32.635Z,3.27
2023-04-26T00:39:19.478Z,3.38
2023-04-26T00:42:06.503Z,3.03
2023-04-26T00:44:57.257Z,2.97
2023-04-26T00:47:44.343Z,3.20
2023-04-26T00:50:32.564Z,2.77
2023-04-26T00:53:19.451Z,2.40
2023-04-26T00:56:10.258Z,2.17
2023-04-26T00:58:57.216Z,2.08
2023-04-26T01:01:43.999Z,2.45
2023-04-26T01:04:31.314Z,2.07
2023-04-26T01:07:18.460Z,1.95
2023-04-26T01:10:06.157Z,3.63
2023-04-26T01:12:53.129Z,3.20
2023-04-26T01:15:46.344Z,2.85
2023-04-26T01:18:33.168Z,2.90
2023-04-26T01:21:22.210Z,3.20
2023-04-26T01:24:11.039Z,2.90
2023-04-26T01:26:57.910Z,2.97
2023-04-26T01:29:46.102Z,2.70
2023-04-26T01:32:32.926Z,2.87
2023-04-26T01:35:19.782Z,3.08
2023-04-26T01:38:06.759Z,3.45
2023-04-26T01:40:53.631Z,3.15
2023-04-26T01:43:40.432Z,2.67
2023-04-26T01:46:27.653Z,2.80
2023-04-26T01:49:14.479Z,2.50
2023-04-26T01:52:01.430Z,2.50
2023-04-26T01:54:48.245Z,2.63
2023-04-26T01:57:35.014Z,2.70
2023-04-26T02:00:21.944Z,2.43
2023-04-26T02:03:08.867Z,2.13
2023-04-26T02:05:55.729Z,2.20
2023-04-26T02:08:42.572Z,2.47
2023-04-26T02:11:29.346Z,2.30
2023-04-26T02:14:16.228Z,2.60
2023-04-26T02:17:04.136Z,2.90
2023-04-26T02:19:50.922Z,2.50
2023-04-26T02:22:37.888Z,2.60
2023-04-26T02:25:24.823Z,3.65
2023-04-26T02:28:11.657Z,3.90
2023-04-26T02:30:58.666Z,3.47
2023-04-26T02:33:45.577Z,4.00
2023-04-26T02:36:33.137Z,4.28
2023-04-26T02:39:20.954Z,4.50
2023-04-26T02:42:10.902Z,4.83
2023-04-26T02:44:57.793Z,5.32
2023-04-26T02:47:44.753Z,5.53
2023-04-26T02:50:31.593Z,5.10
2023-04-26T02:53:18.404Z,5.32
2023-04-26T02:56:05.992Z,4.67
2023-04-26T02:58:53.048Z,5.00
2023-04-26T03:01:40.385Z,5.00
2023-04-26T03:04:27.724Z,4.43
2023-04-26T03:07:14.533Z,5.32
2023-04-26T03:10:02.073Z,4.73
2023-04-26T03:12:48.865Z,5.32
2023-04-26T03:15:35.668Z,5.00
2023-04-26T03:18:22.583Z,5.18
2023-04-26T03:21:09.342Z,5.43
2023-04-26T03:23:56.152Z,5.20
2023-04-26T03:26:43.052Z,5.13
2023-04-26T03:29:29.846Z,6.32
2023-04-26T03:32:16.801Z,5.82
2023-04-26T03:35:04.580Z,6.15
2023-04-26T03:37:53.345Z,5.93
2023-04-26T03:40:40.324Z,5.78
2023-04-26T03:43:27.084Z,6.53
2023-04-26T03:46:13.885Z,5.70
2023-04-26T03:49:00.848Z,4.80
2023-04-26T03:51:47.634Z,4.97
2023-04-26T03:54:34.797Z,4.53
2023-04-26T03:57:21.693Z,4.72
2023-04-26T04:00:13.774Z,4.97
2023-04-26T04:03:00.861Z,5.18
2023-04-26T04:05:47.808Z,4.60
2023-04-26T04:08:34.927Z,4.68
2023-04-26T04:11:21.735Z,4.78
2023-04-26T04:14:08.526Z,4.70
2023-04-26T04:16:55.359Z,4.70
2023-04-26T04:19:42.272Z,4.00
2023-04-26T04:22:29.151Z,4.60
2023-04-26T04:25:16.471Z,4.90
2023-04-26T04:28:03.616Z,5.22
2023-04-26T04:30:50.949Z,5.43
2023-04-26T04:33:37.921Z,4.87
2023-04-26T04:36:26.266Z,5.22
2023-04-26T04:39:16.142Z,4.53
2023-04-26T04:42:03.030Z,5.25
2023-04-26T04:44:50.596Z,5.28
2023-04-26T04:47:37.902Z,4.90
2023-04-26T04:50:24.841Z,5.40
2023-04-26T04:53:12.777Z,5.68
2023-04-26T04:55:59.749Z,6.05
2023-04-26T04:58:47.759Z,5.93
2023-04-26T05:01:35.775Z,5.07
2023-04-26T05:04:22.772Z,5.47
2023-04-26T05:07:09.713Z,4.78
2023-04-26T05:09:56.527Z,4.70
2023-04-26T05:12:43.384Z,5.20
2023-04-26T05:15:30.245Z,5.13
2023-04-26T05:18:17.050Z,5.07
2023-04-26T05:21:04.002Z,5.30
2023-04-26T05:23:51.083Z,5.10
2023-04-26T05:26:38.098Z,5.30
2023-04-26T05:29:28.973Z,4.40
2023-04-26T05:32:15.784Z,4.20
2023-04-26T05:35:02.704Z,4.80
2023-04-26T05:37:49.541Z,4.70
2023-04-26T05:40:36.604Z,5.10
2023-04-26T05:43:23.699Z,5.23
2023-04-26T05:46:10.528Z,4.97
2023-04-26T05:48:57.401Z,5.40
2023-04-26T05:51:44.317Z,6.30
2023-04-26T05:54:31.158Z,6.82
2023-04-26T05:57:18.975Z,6.47
2023-04-26T06:00:06.520Z,5.95
2023-04-26T06:02:53.403Z,6.07
2023-04-26T06:05:41.280Z,5.70
2023-04-26T06:08:28.671Z,6.28
2023-04-26T06:11:15.529Z,5.80
2023-04-26T06:14:02.385Z,5.88
2023-04-26T06:16:49.367Z,6.47
2023-04-26T06:19:36.301Z,6.70
2023-04-26T06:22:23.139Z,5.70
2023-04-26T06:25:10.387Z,4.90
2023-04-26T06:27:58.672Z,5.53
2023-04-26T06:30:45.862Z,5.00
2023-04-26T06:33:32.717Z,5.22
2023-04-26T06:36:19.612Z,5.88
2023-04-26T06:39:06.883Z,6.53
2023-04-26T06:41:53.731Z,5.32
2023-04-26T06:44:40.514Z,5.38
2023-04-26T06:47:27.351Z,5.88
2023-04-26T06:50:14.458Z,4.70
2023-04-26T06:53:01.320Z,4.33
2023-04-26T06:55:48.245Z,4.28
2023-04-26T06:58:35.005Z,4.80
2023-04-26T07:01:21.816Z,4.18
2023-04-26T07:04:10.868Z,4.72
2023-04-26T07:06:57.939Z,4.63
2023-04-26T07:09:44.731Z,4.63
2023-04-26T07:12:31.776Z,4.45
2023-04-26T07:15:18.572Z,3.92
2023-04-26T07:18:05.434Z,4.00
2023-04-26T07:20:52.320Z,3.90
2023-04-26T07:23:39.238Z,4.10
2023-04-26T07:26:29.693Z,3.97
2023-04-26T07:29:18.655Z,3.90
2023-04-26T07:32:05.802Z,3.75
2023-04-26T07:34:52.638Z,3.87
2023-04-26T07:37:39.464Z,3.80
2023-04-26T07:40:26.354Z,3.75
2023-04-26T07:43:13.489Z,3.97
2023-04-26T07:46:03.152Z,3.70
2023-04-26T07:48:50.064Z,3.60
2023-04-26T07:51:37.260Z,3.10
2023-04-26T07:54:24.102Z,2.90
2023-04-26T07:57:10.970Z,2.70
2023-04-26T07:59:58.285Z,3.70
2023-04-26T08:02:48.339Z,2.90
2023-04-26T08:05:35.478Z,2.90
2023-04-26T08:08:23.050Z,3.30
2023-04-26T08:11:10.601Z,2.85
2023-04-26T08:13:57.446Z,3.10
2023-04-26T08:16:44.418Z,2.90
2023-04-26T08:19:33.345Z,2.47
2023-04-26T08:22:20.157Z,2.90
2023-04-26T08:25:07.287Z,2.60
2023-04-26T08:27:54.169Z,2.60
2023-04-26T08:30:43.797Z,2.90
2023-04-26T08:33:30.840Z,2.63
2023-04-26T08:36:17.798Z,2.95
2023-04-26T08:39:05.006Z,2.42
2023-04-26T08:41:55.057Z,2.40
2023-04-26T08:44:43.379Z,2.70
2023-04-26T08:47:41.392Z,2.75
2023-04-26T08:50:29.859Z,2.60
2023-04-26T08:53:20.249Z,2.60
2023-04-26T08:56:08.573Z,2.40
2023-04-26T08:58:55.565Z,2.30
2023-04-26T09:01:44.116Z,2.00
2023-04-26T09:04:31.918Z,2.03
2023-04-26T09:07:30.761Z,1.80
2023-04-26T09:10:22.605Z,2.00
2023-04-26T09:13:09.577Z,2.00
2023-04-26T09:15:56.712Z,2.25
2023-04-26T09:18:54.726Z,2.22
2023-04-26T09:21:46.696Z,2.08
2023-04-26T09:24:50.694Z,2.10
2023-04-26T09:27:40.110Z,2.67
2023-04-26T09:30:28.096Z,2.22
2023-04-26T09:33:15.964Z,2.20
2023-04-26T09:36:13.367Z,3.50
2023-04-26T09:39:00.174Z,6.57
2023-04-26T09:41:47.007Z,4.67
2023-04-26T09:44:34.047Z,6.65
2023-04-26T09:47:22.164Z,5.25
2023-04-26T09:50:09.274Z,6.13
2023-04-26T09:52:56.755Z,4.10
2023-04-26T09:55:43.615Z,4.07
2023-04-26T09:58:30.562Z,4.32
2023-04-26T10:01:19.194Z,3.58
2023-04-26T10:04:07.562Z,4.00
2023-04-26T10:06:54.830Z,3.25
2023-04-26T10:09:42.541Z,3.17
2023-04-26T10:12:29.528Z,3.30
2023-04-26T10:15:17.693Z,3.33
2023-04-26T10:18:04.903Z,3.63
2023-04-26T10:20:56.010Z,3.33
2023-04-26T10:23:43.520Z,3.43
2023-04-26T10:26:57.207Z,3.00
2023-04-26T10:29:56.528Z,3.03
2023-04-26T10:32:57.420Z,2.80
2023-04-26T10:36:13.728Z,2.63
2023-04-26T10:39:23.335Z,2.80
2023-04-26T10:42:25.474Z,3.13
2023-04-26T10:45:27.727Z,2.78
2023-04-26T10:48:21.545Z,2.85
2023-04-26T10:51:08.774Z,2.50
2023-04-26T10:53:56.259Z,2.90
2023-04-26T10:56:43.447Z,3.00
2023-04-26T10:59:43.519Z,2.97
2023-04-26T11:02:53.198Z,3.30
2023-04-26T11:05:55.231Z,3.10
2023-04-26T11:08:43.258Z,3.20
2023-04-26T11:11:32.804Z,3.30
2023-04-26T11:14:19.781Z,3.10
2023-04-26T11:17:07.025Z,2.83
2023-04-26T11:19:54.639Z,3.90
2023-04-26T11:22:42.152Z,3.60
2023-04-26T11:25:30.655Z,3.50
2023-04-26T11:28:19.014Z,3.70
2023-04-26T11:31:07.452Z,3.40
2023-04-26T11:33:54.326Z,3.40
2023-04-26T11:36:41.263Z,3.50
2023-04-26T11:39:28.321Z,3.40
2023-04-26T11:42:15.293Z,3.30
2023-04-26T11:45:06.891Z,5.43
2023-04-26T11:47:54.237Z,3.83
2023-04-26T11:50:41.903Z,3.70
2023-04-26T11:53:41.994Z,3.42
2023-04-26T11:56:29.112Z,3.40
2023-04-26T11:59:24.275Z,3.65
2023-04-26T12:02:11.986Z,3.60
2023-04-26T12:04:59.812Z,3.37
2023-04-26T12:07:50.336Z,3.15
2023-04-26T12:10:38.067Z,3.13
2023-04-26T12:13:25.240Z,2.95
2023-04-26T12:16:25.736Z,2.72
2023-04-26T12:19:13.462Z,3.60
2023-04-26T12:22:00.283Z,2.97
2023-04-26T12:24:48.146Z,3.03
2023-04-26T12:27:34.980Z,2.92
2023-04-26T12:30:22.509Z,2.78
2023-04-26T12:33:17.020Z,3.17
2023-04-26T12:36:09.146Z,3.10
2023-04-26T12:38:56.717Z,3.00
2023-04-26T12:41:44.824Z,2.72
2023-04-26T12:44:31.968Z,2.83
2023-04-26T12:47:18.920Z,2.90
2023-04-26T12:50:06.399Z,2.70
2023-04-26T12:52:53.442Z,2.67
2023-04-26T12:55:40.482Z,2.60
2023-04-26T12:58:28.648Z,2.60
2023-04-26T13:01:16.142Z,3.03
2023-04-26T13:04:05.689Z,2.60
2023-04-26T13:06:52.859Z,2.83
2023-04-26T13:09:39.810Z,2.60
2023-04-26T13:12:27.005Z,2.47
2023-04-26T13:15:15.185Z,2.47
2023-04-26T13:18:03.876Z,2.70
2023-04-26T13:20:51.435Z,2.58
2023-04-26T13:23:38.304Z,2.60
2023-04-26T13:26:27.520Z,2.78
2023-04-26T13:29:14.794Z,2.87
2023-04-26T13:32:02.933Z,3.25
2023-04-26T13:34:49.934Z,2.50
2023-04-26T13:37:36.864Z,2.75
2023-04-26T13:40:23.708Z,2.70
2023-04-26T13:43:10.527Z,2.60
2023-04-26T13:45:57.534Z,2.60
2023-04-26T13:48:44.357Z,2.60
2023-04-26T13:51:32.869Z,2.58
2023-04-26T13:54:22.121Z,3.00
2023-04-26T13:57:10.070Z,2.60
2023-04-26T13:59:56.940Z,2.58
2023-04-26T14:02:43.931Z,2.40
2023-04-26T14:05:31.245Z,2.40
2023-04-26T14:08:18.307Z,2.35
2023-04-26T14:11:05.637Z,2.40
2023-04-26T14:13:56.031Z,2.45
2023-04-26T14:16:43.100Z,2.67
2023-04-26T14:19:30.050Z,2.60
2023-04-26T14:22:17.821Z,2.80
2023-04-26T14:25:05.177Z,3.50
2023-04-26T14:27:53.723Z,3.10
2023-04-26T14:30:40.559Z,3.08
2023-04-26T14:33:27.386Z,2.95
2023-04-26T14:36:14.276Z,2.67
2023-04-26T14:39:01.189Z,2.63
2023-04-26T14:41:48.078Z,2.83
2023-04-26T14:44:35.072Z,2.88
2023-04-26T14:47:22.160Z,2.97
2023-04-26T14:50:10.283Z,3.00
2023-04-26T14:52:57.047Z,2.90
2023-04-26T14:55:43.855Z,3.00
2023-04-26T14:58:30.696Z,3.20
2023-04-26T15:01:17.571Z,2.80
2023-04-26T15:04:04.642Z,3.00
2023-04-26T15:06:51.656Z,2.80
2023-04-26T15:09:38.473Z,2.90
2023-04-26T15:12:27.958Z,2.88
2023-04-26T15:15:15.334Z,2.80
2023-04-26T15:18:04.960Z,2.50
2023-04-26T15:20:51.863Z,2.33
2023-04-26T15:23:38.718Z,2.53
2023-04-26T15:26:26.016Z,2.38
2023-04-26T15:29:13.041Z,2.90
2023-04-26T15:32:00.063Z,3.17
2023-04-26T15:34:47.690Z,2.80
2023-04-26T15:37:37.425Z,2.97
2023-04-26T15:40:24.752Z,2.90
2023-04-26T15:43:11.665Z,3.55
2023-04-26T15:45:58.573Z,2.80
2023-04-26T15:48:47.318Z,5.07
2023-04-26T15:51:34.265Z,3.00
2023-04-26T15:54:21.813Z,3.30
2023-04-26T15:57:08.901Z,2.72
2023-04-26T15:59:56.785Z,2.90
2023-04-26T16:02:44.955Z,3.57
2023-04-26T16:05:32.136Z,3.10
2023-04-26T16:08:36.752Z,2.65
2023-04-26T16:11:27.208Z,2.65
2023-04-26T16:14:14.022Z,3.13
2023-04-26T16:17:04.788Z,3.23
2023-04-26T16:19:51.643Z,3.60
2023-04-26T16:22:38.460Z,3.60
2023-04-26T16:25:25.860Z,4.03
2023-04-26T16:28:12.739Z,4.35
2023-04-26T16:30:59.641Z,3.40
2023-04-26T16:33:46.806Z,4.18
2023-04-26T16:36:33.588Z,4.00
2023-04-26T16:39:21.540Z,4.65
2023-04-26T16:42:08.669Z,4.05
2023-04-26T16:44:55.990Z,4.23
2023-04-26T16:47:42.902Z,3.95
2023-04-26T16:50:29.720Z,4.38
2023-04-26T16:53:16.681Z,4.00
2023-04-26T16:56:04.098Z,3.42
2023-04-26T16:58:51.027Z,3.37
2023-04-26T17:01:38.100Z,3.70
2023-04-26T17:04:26.329Z,3.83
2023-04-26T17:07:13.409Z,3.50
2023-04-26T17:10:00.332Z,3.72
2023-04-26T17:12:47.275Z,3.50
2023-04-26T17:15:34.786Z,3.40
2023-04-26T17:18:21.958Z,3.40
2023-04-26T17:21:08.964Z,8.00
2023-04-26T17:23:55.928Z,8.10
2023-04-26T17:26:42.865Z,7.47
2023-04-26T17:29:29.672Z,7.53
2023-04-26T17:32:16.717Z,5.28
2023-04-26T17:35:04.166Z,5.25
2023-04-26T17:37:51.396Z,3.53
2023-04-26T17:40:38.374Z,4.00
2023-04-26T17:43:25.197Z,3.90
2023-04-26T17:46:12.297Z,3.65
2023-04-26T17:48:59.822Z,3.50
2023-04-26T17:51:46.838Z,4.18
2023-04-26T17:54:33.672Z,3.80
2023-04-26T17:57:23.029Z,3.40
2023-04-26T18:00:10.466Z,7.93
2023-04-26T18:02:57.994Z,6.82
2023-04-26T18:05:45.061Z,5.60
2023-04-26T18:08:31.823Z,5.00
2023-04-26T18:11:20.448Z,5.38
2023-04-26T18:14:07.963Z,7.00
2023-04-26T18:16:54.821Z,4.82
2023-04-26T18:19:42.274Z,5.32
2023-04-26T18:22:29.078Z,4.10
2023-04-26T18:25:15.877Z,7.63
2023-04-26T18:28:02.750Z,9.02
2023-04-26T18:30:49.615Z,7.03
2023-04-26T18:33:36.473Z,9.75
2023-04-26T18:36:23.251Z,6.47
2023-04-26T18:39:10.156Z,9.55
2023-04-26T18:41:57.205Z,5.78
2023-04-26T18:44:44.024Z,6.65
2023-04-26T18:47:31.005Z,8.23
2023-04-26T18:50:17.965Z,8.77
2023-04-26T18:53:04.843Z,7.93
2023-04-26T18:55:53.149Z,6.20
2023-04-26T18:58:39.955Z,5.28
2023-04-26T19:01:27.016Z,4.30
2023-04-26T19:04:14.105Z,4.07
2023-04-26T19:07:00.991Z,5.10
2023-04-26T19:09:54.148Z,4.57
2023-04-26T19:12:41.672Z,3.90
2023-04-26T19:15:28.699Z,4.00
2023-04-26T19:18:17.907Z,4.23
2023-04-26T19:21:08.365Z,4.90
2023-04-26T19:23:55.330Z,5.20
2023-04-26T19:26:42.273Z,4.95
2023-04-26T19:29:29.177Z,5.30
2023-04-26T19:32:16.128Z,4.67
2023-04-26T19:35:06.026Z,4.78
2023-04-26T19:37:52.845Z,5.40
2023-04-26T19:40:39.907Z,5.05
2023-04-26T19:43:26.770Z,6.60
2023-04-26T19:46:14.555Z,5.73
2023-04-26T19:49:01.449Z,6.93
2023-04-26T19:51:48.499Z,7.10
2023-04-26T19:54:35.455Z,10.15
2023-04-26T19:57:22.587Z,11.65
2023-04-26T20:00:11.796Z,13.70
2023-04-26T20:03:01.709Z,15.60
2023-04-26T20:05:49.377Z,9.65
2023-04-26T20:08:36.352Z,7.85
2023-04-26T20:11:23.757Z,6.38
2023-04-26T20:14:10.820Z,6.00
2023-04-26T20:17:02.288Z,5.13
2023-04-26T20:19:49.465Z,4.80
2023-04-26T20:22:36.648Z,4.40
2023-04-26T20:25:23.558Z,4.43
2023-04-26T20:28:10.485Z,4.80
2023-04-26T20:30:57.453Z,4.20
2023-04-26T20:33:44.279Z,4.40
2023-04-26T20:36:31.176Z,6.45
2023-04-26T20:39:18.227Z,7.00
2023-04-26T20:42:05.816Z,7.63
2023-04-26T20:44:52.650Z,7.43
2023-04-26T20:47:39.553Z,9.77
2023-04-26T20:50:26.398Z,12.30
2023-04-26T20:53:13.274Z,9.63
2023-04-26T20:56:00.237Z,7.50
2023-04-26T20:58:47.168Z,6.80
2023-04-26T21:01:34.585Z,6.03
2023-04-26T21:04:22.130Z,5.93
2023-04-26T21:07:10.476Z,5.25
2023-04-26T21:09:57.708Z,5.60
2023-04-26T21:12:44.572Z,6.03
2023-04-26T21:15:31.539Z,6.47
2023-04-26T21:18:18.406Z,6.28
2023-04-26T21:21:05.385Z,7.50
2023-04-26T21:23:52.236Z,7.17
2023-04-26T21:26:39.255Z,8.18
2023-04-26T21:29:26.038Z,7.55
2023-04-26T21:32:12.853Z,7.90
2023-04-26T21:34:59.822Z,6.80
2023-04-26T21:37:46.709Z,5.70
2023-04-26T21:40:33.505Z,5.00
2023-04-26T21:43:21.619Z,5.95
2023-04-26T21:46:08.591Z,7.60
2023-04-26T21:48:55.471Z,8.32
2023-04-26T21:51:42.311Z,7.27
2023-04-26T21:54:29.181Z,5.72
2023-04-26T21:57:16.120Z,4.80
2023-04-26T22:00:07.153Z,4.85
2023-04-26T22:02:54.280Z,5.13
2023-04-26T22:05:41.199Z,5.50
2023-04-26T22:08:28.079Z,4.00
2023-04-26T22:11:14.911Z,3.97
2023-04-26T22:14:01.775Z,3.65
2023-04-26T22:16:48.704Z,4.00
2023-04-26T22:19:35.662Z,4.93
2023-04-26T22:22:22.467Z,4.50
2023-04-26T22:25:09.811Z,4.00
2023-04-26T22:27:56.916Z,4.20
2023-04-26T22:30:43.793Z,5.93
2023-04-26T22:33:30.558Z,5.77
2023-04-26T22:36:17.361Z,5.18
2023-04-26T22:39:04.202Z,5.38
2023-04-26T22:41:31.146Z,5.90
2023-04-26T22:43:57.800Z,4.65
2023-04-26T22:46:24.577Z,4.23
2023-04-26T22:48:51.243Z,4.38
2023-04-26T22:51:17.880Z,4.10
2023-04-26T22:53:44.511Z,4.20
2023-04-26T22:56:11.421Z,4.22
2023-04-26T22:58:38.037Z,3.87
2023-04-26T23:01:05.413Z,3.97
2023-04-26T23:03:36.291Z,4.20
2023-04-26T23:06:04.691Z,4.20
2023-04-26T23:08:31.425Z,4.40
2023-04-26T23:10:58.079Z,7.83
2023-04-26T23:13:25.678Z,6.90
2023-04-26T23:15:52.419Z,4.65
2023-04-26T23:18:19.668Z,5.07
2023-04-26T23:20:46.451Z,4.93
2023-04-26T23:23:13.144Z,3.80
2023-04-26T23:25:42.144Z,4.43
2023-04-26T23:28:09.120Z,4.07
2023-04-26T23:30:36.193Z,4.43
2023-04-26T23:33:03.145Z,4.10
2023-04-26T23:35:30.038Z,4.10
2023-04-26T23:37:56.712Z,3.95
2023-04-26T23:40:23.436Z,4.07
2023-04-26T23:42:50.086Z,4.00
2023-04-26T23:45:16.931Z,3.95
2023-04-26T23:47:43.527Z,4.00
2023-04-26T23:50:10.654Z,4.53
2023-04-26T23:52:37.408Z,4.70
2023-04-26T23:55:04.376Z,4.57
2023-04-26T23:57:31.080Z,4.70
2023-04-26T23:59:57.837Z,5.00
